sensor_id;sensor_type;location;lat;lon;timestamp;pressure;altitude;pressure_sealevel;temperature;humidity
20444;BME280;10381;53.730;10.010;2023-02-28T00:02:11;102745.16;;;1.75;100.00
20444;BME280;10381;53.730;10.010;2023-02-28T00:06:11;102743.72;;;1.58;100.00
20444;BME280;10381;53.730;10.010;2023-02-28T00:10:14;102752.53;;;1.54;100.00
20444;BME280;10381;53.730;10.010;2023-02-28T00:14:14;102746.88;;;1.29;100.00
20444;BME280;10381;53.730;10.010;2023-02-28T00:18:15;102741.13;;;1.10;100.00
20444;BME280;10381;53.730;10.010;2023-02-28T00:22:20;102746.53;;;0.98;100.00
20444;BME280;10381;53.730;10.010;2023-02-28T00:26:20;102742.22;;;0.97;100.00
20444;BME280;10381;53.730;10.010;2023-02-28T00:30:22;102747.22;;;1.09;100.00
20444;BME280;10381;53.730;10.010;2023-02-28T00:34:23;102749.09;;;1.02;100.00
20444;BME280;10381;53.730;10.010;2023-02-28T00:38:23;102744.63;;;1.08;100.00
20444;BME280;10381;53.730;10.010;2023-02-28T00:42:24;102741.47;;;0.89;100.00
20444;BME280;10381;53.730;10.010;2023-02-28T00:46:24;102759.47;;;1.05;100.00
20444;BME280;10381;53.730;10.010;2023-02-28T00:50:24;102756.84;;;1.05;100.00
20444;BME280;10381;53.730;10.010;2023-02-28T00:54:25;102763.03;;;1.01;100.00
20444;BME280;10381;53.730;10.010;2023-02-28T00:58:26;102758.03;;;0.86;100.00
20444;BME280;10381;53.730;10.010;2023-02-28T01:02:26;102749.44;;;0.81;100.00
20444;BME280;10381;53.730;10.010;2023-02-28T01:06:26;102757.28;;;0.79;100.00
20444;BME280;10381;53.730;10.010;2023-02-28T01:10:27;102755.56;;;0.78;100.00
20444;BME280;10381;53.730;10.010;2023-02-28T01:14:31;102750.91;;;0.97;100.00
20444;BME280;10381;53.730;10.010;2023-02-28T01:18:31;102757.19;;;0.85;100.00
20444;BME280;10381;53.730;10.010;2023-02-28T01:22:31;102756.34;;;0.83;100.00
20444;BME280;10381;53.730;10.010;2023-02-28T01:26:32;102758.19;;;0.77;100.00
20444;BME280;10381;53.730;10.010;2023-02-28T01:30:32;102760.78;;;0.80;100.00
20444;BME280;10381;53.730;10.010;2023-02-28T01:34:33;102756.41;;;0.79;100.00
20444;BME280;10381;53.730;10.010;2023-02-28T01:38:33;102758.94;;;0.85;100.00
20444;BME280;10381;53.730;10.010;2023-02-28T01:42:33;102752.94;;;0.80;100.00
20444;BME280;10381;53.730;10.010;2023-02-28T01:46:35;102751.97;;;0.85;100.00
20444;BME280;10381;53.730;10.010;2023-02-28T01:50:39;102748.66;;;0.74;100.00
20444;BME280;10381;53.730;10.010;2023-02-28T01:54:41;102746.22;;;0.65;100.00
20444;BME280;10381;53.730;10.010;2023-02-28T01:58:41;102744.50;;;0.62;100.00
20444;BME280;10381;53.730;10.010;2023-02-28T02:02:43;102747.22;;;0.55;100.00
20444;BME280;10381;53.730;10.010;2023-02-28T02:06:47;102748.38;;;0.35;100.00
20444;BME280;10381;53.730;10.010;2023-02-28T02:10:50;102741.91;;;-0.01;100.00
20444;BME280;10381;53.730;10.010;2023-02-28T02:15:13;102742.13;;;-0.19;100.00
20444;BME280;10381;53.730;10.010;2023-02-28T02:19:41;102743.69;;;-0.03;100.00
20444;BME280;10381;53.730;10.010;2023-02-28T02:36:42;102737.78;;;-0.16;100.00
20444;BME280;10381;53.730;10.010;2023-02-28T02:45:27;102736.66;;;0.02;100.00
20444;BME280;10381;53.730;10.010;2023-02-28T02:49:31;102734.78;;;0.13;100.00
20444;BME280;10381;53.730;10.010;2023-02-28T02:53:36;102736.44;;;0.20;100.00
20444;BME280;10381;53.730;10.010;2023-02-28T02:57:48;102736.47;;;0.17;100.00
20444;BME280;10381;53.730;10.010;2023-02-28T03:02:00;102734.84;;;0.09;100.00
20444;BME280;10381;53.730;10.010;2023-02-28T03:06:02;102739.09;;;0.16;100.00
20444;BME280;10381;53.730;10.010;2023-02-28T03:10:25;102732.19;;;0.12;100.00
20444;BME280;10381;53.730;10.010;2023-02-28T03:14:56;102733.81;;;0.22;100.00
20444;BME280;10381;53.730;10.010;2023-02-28T03:19:08;102735.06;;;-0.07;100.00
20444;BME280;10381;53.730;10.010;2023-02-28T03:23:16;102738.25;;;-0.59;100.00
20444;BME280;10381;53.730;10.010;2023-02-28T03:27:27;102737.69;;;-0.90;100.00
20444;BME280;10381;53.730;10.010;2023-02-28T03:31:39;102741.31;;;-1.10;100.00
20444;BME280;10381;53.730;10.010;2023-02-28T03:35:54;102750.06;;;-1.18;100.00
20444;BME280;10381;53.730;10.010;2023-02-28T03:40:01;102759.50;;;-1.05;100.00
20444;BME280;10381;53.730;10.010;2023-02-28T03:44:10;102759.59;;;-1.20;100.00
20444;BME280;10381;53.730;10.010;2023-02-28T03:48:22;102760.59;;;-1.34;100.00
20444;BME280;10381;53.730;10.010;2023-02-28T03:52:27;102756.22;;;-1.29;100.00
20444;BME280;10381;53.730;10.010;2023-02-28T03:56:42;102765.75;;;-1.31;100.00
20444;BME280;10381;53.730;10.010;2023-02-28T04:00:47;102764.00;;;-1.30;100.00
20444;BME280;10381;53.730;10.010;2023-02-28T04:04:49;102763.22;;;-1.40;100.00
20444;BME280;10381;53.730;10.010;2023-02-28T04:08:51;102758.22;;;-1.74;100.00
20444;BME280;10381;53.730;10.010;2023-02-28T04:12:51;102770.47;;;-1.97;100.00
20444;BME280;10381;53.730;10.010;2023-02-28T04:16:51;102767.97;;;-2.26;100.00
20444;BME280;10381;53.730;10.010;2023-02-28T04:20:52;102774.09;;;-2.47;100.00
20444;BME280;10381;53.730;10.010;2023-02-28T04:24:52;102767.03;;;-2.05;100.00
20444;BME280;10381;53.730;10.010;2023-02-28T04:28:54;102777.44;;;-2.10;100.00
20444;BME280;10381;53.730;10.010;2023-02-28T04:32:54;102775.69;;;-2.03;100.00
20444;BME280;10381;53.730;10.010;2023-02-28T04:36:56;102780.00;;;-2.02;100.00
20444;BME280;10381;53.730;10.010;2023-02-28T04:40:58;102784.41;;;-2.24;100.00
20444;BME280;10381;53.730;10.010;2023-02-28T04:44:58;102786.19;;;-2.48;100.00
20444;BME280;10381;53.730;10.010;2023-02-28T04:48:58;102787.09;;;-2.66;100.00
20444;BME280;10381;53.730;10.010;2023-02-28T04:52:59;102788.81;;;-2.55;100.00
20444;BME280;10381;53.730;10.010;2023-02-28T04:56:59;102791.41;;;-2.68;100.00
20444;BME280;10381;53.730;10.010;2023-02-28T05:01:05;102785.38;;;-3.04;100.00
20444;BME280;10381;53.730;10.010;2023-02-28T05:05:12;102783.63;;;-3.15;100.00
20444;BME280;10381;53.730;10.010;2023-02-28T05:09:18;102791.41;;;-3.41;100.00
20444;BME280;10381;53.730;10.010;2023-02-28T05:13:18;102789.56;;;-3.73;100.00
20444;BME280;10381;53.730;10.010;2023-02-28T05:17:18;102793.06;;;-3.62;100.00
20444;BME280;10381;53.730;10.010;2023-02-28T05:21:30;102794.03;;;-3.12;100.00
20444;BME280;10381;53.730;10.010;2023-02-28T05:25:30;102793.13;;;-3.40;100.00
20444;BME280;10381;53.730;10.010;2023-02-28T05:29:30;102800.03;;;-3.33;100.00
20444;BME280;10381;53.730;10.010;2023-02-28T05:33:30;102802.66;;;-3.26;100.00
20444;BME280;10381;53.730;10.010;2023-02-28T05:37:31;102801.78;;;-3.41;100.00
20444;BME280;10381;53.730;10.010;2023-02-28T05:41:31;102807.78;;;-3.46;100.00
20444;BME280;10381;53.730;10.010;2023-02-28T05:45:31;102811.13;;;-3.83;100.00
20444;BME280;10381;53.730;10.010;2023-02-28T05:49:32;102814.69;;;-3.55;100.00
20444;BME280;10381;53.730;10.010;2023-02-28T05:53:32;102805.03;;;-3.95;100.00
20444;BME280;10381;53.730;10.010;2023-02-28T05:57:33;102820.56;;;-3.90;100.00
20444;BME280;10381;53.730;10.010;2023-02-28T06:01:39;102816.41;;;-3.53;100.00
20444;BME280;10381;53.730;10.010;2023-02-28T06:05:40;102825.09;;;-3.32;100.00
20444;BME280;10381;53.730;10.010;2023-02-28T06:09:40;102825.91;;;-3.53;100.00
20444;BME280;10381;53.730;10.010;2023-02-28T06:13:41;102830.94;;;-3.92;100.00
20444;BME280;10381;53.730;10.010;2023-02-28T06:17:42;102829.28;;;-3.76;100.00
20444;BME280;10381;53.730;10.010;2023-02-28T06:21:43;102832.78;;;-3.65;100.00
20444;BME280;10381;53.730;10.010;2023-02-28T06:25:46;102836.31;;;-3.49;100.00
20444;BME280;10381;53.730;10.010;2023-02-28T06:29:46;102837.97;;;-3.61;100.00
20444;BME280;10381;53.730;10.010;2023-02-28T06:33:47;102853.44;;;-3.78;100.00
20444;BME280;10381;53.730;10.010;2023-02-28T06:37:47;102854.34;;;-3.72;100.00
20444;BME280;10381;53.730;10.010;2023-02-28T06:41:47;102850.97;;;-3.52;100.00
20444;BME280;10381;53.730;10.010;2023-02-28T06:45:48;102851.94;;;-3.09;100.00
20444;BME280;10381;53.730;10.010;2023-02-28T06:49:49;102852.78;;;-3.08;100.00
20444;BME280;10381;53.730;10.010;2023-02-28T06:53:50;102862.28;;;-3.09;100.00
20444;BME280;10381;53.730;10.010;2023-02-28T06:57:50;102869.25;;;-3.00;100.00
20444;BME280;10381;53.730;10.010;2023-02-28T07:01:51;102864.94;;;-2.81;100.00
20444;BME280;10381;53.730;10.010;2023-02-28T07:05:52;102872.72;;;-2.69;100.00
20444;BME280;10381;53.730;10.010;2023-02-28T07:09:52;102870.13;;;-2.52;100.00
20444;BME280;10381;53.730;10.010;2023-02-28T07:13:53;102871.81;;;-2.22;100.00
20444;BME280;10381;53.730;10.010;2023-02-28T07:17:53;102881.31;;;-2.04;100.00
20444;BME280;10381;53.730;10.010;2023-02-28T07:21:54;102881.28;;;-1.90;100.00
20444;BME280;10381;53.730;10.010;2023-02-28T07:25:54;102886.41;;;-1.72;100.00
20444;BME280;10381;53.730;10.010;2023-02-28T07:29:54;102882.88;;;-1.49;100.00
20444;BME280;10381;53.730;10.010;2023-02-28T07:33:55;102887.06;;;-1.23;100.00
20444;BME280;10381;53.730;10.010;2023-02-28T07:37:59;102885.97;;;-0.87;100.00
20444;BME280;10381;53.730;10.010;2023-02-28T07:42:00;102890.13;;;-0.63;100.00
20444;BME280;10381;53.730;10.010;2023-02-28T07:46:06;102881.25;;;-0.39;100.00
20444;BME280;10381;53.730;10.010;2023-02-28T07:50:10;102881.81;;;-0.05;100.00
20444;BME280;10381;53.730;10.010;2023-02-28T07:54:11;102859.63;;;0.35;100.00
20444;BME280;10381;53.730;10.010;2023-02-28T07:58:11;102852.41;;;0.57;100.00
20444;BME280;10381;53.730;10.010;2023-02-28T08:02:13;102844.50;;;0.63;100.00
20444;BME280;10381;53.730;10.010;2023-02-28T08:06:19;102843.13;;;0.98;100.00
20444;BME280;10381;53.730;10.010;2023-02-28T08:10:20;102838.31;;;1.27;100.00
20444;BME280;10381;53.730;10.010;2023-02-28T08:14:20;102838.91;;;1.43;100.00
20444;BME280;10381;53.730;10.010;2023-02-28T08:18:22;102833.38;;;1.60;100.00
20444;BME280;10381;53.730;10.010;2023-02-28T08:22:22;102839.13;;;1.79;100.00
20444;BME280;10381;53.730;10.010;2023-02-28T08:26:23;102844.81;;;2.01;100.00
20444;BME280;10381;53.730;10.010;2023-02-28T08:30:23;102843.78;;;2.08;100.00
20444;BME280;10381;53.730;10.010;2023-02-28T08:34:23;102846.94;;;2.26;100.00
20444;BME280;10381;53.730;10.010;2023-02-28T08:38:23;102849.50;;;2.29;100.00
20444;BME280;10381;53.730;10.010;2023-02-28T08:42:24;102843.25;;;2.36;100.00
20444;BME280;10381;53.730;10.010;2023-02-28T08:46:24;102847.38;;;2.46;100.00
20444;BME280;10381;53.730;10.010;2023-02-28T08:50:24;102845.13;;;2.70;100.00
20444;BME280;10381;53.730;10.010;2023-02-28T08:54:25;102845.81;;;2.78;100.00
20444;BME280;10381;53.730;10.010;2023-02-28T08:58:25;102849.81;;;2.94;100.00
20444;BME280;10381;53.730;10.010;2023-02-28T09:02:26;102857.69;;;2.93;100.00
20444;BME280;10381;53.730;10.010;2023-02-28T09:06:26;102862.41;;;3.16;100.00
20444;BME280;10381;53.730;10.010;2023-02-28T09:10:27;102864.06;;;3.20;100.00
20444;BME280;10381;53.730;10.010;2023-02-28T09:14:27;102868.72;;;3.41;100.00
20444;BME280;10381;53.730;10.010;2023-02-28T09:18:28;102870.06;;;3.24;100.00
20444;BME280;10381;53.730;10.010;2023-02-28T09:22:28;102867.41;;;3.61;100.00
20444;BME280;10381;53.730;10.010;2023-02-28T09:26:29;102864.22;;;3.82;100.00
20444;BME280;10381;53.730;10.010;2023-02-28T09:30:30;102871.31;;;3.77;100.00
20444;BME280;10381;53.730;10.010;2023-02-28T09:34:30;102871.16;;;3.83;100.00
20444;BME280;10381;53.730;10.010;2023-02-28T09:38:30;102872.03;;;3.84;100.00
20444;BME280;10381;53.730;10.010;2023-02-28T09:42:33;102874.00;;;3.76;100.00
20444;BME280;10381;53.730;10.010;2023-02-28T09:46:45;102871.47;;;4.04;100.00
20444;BME280;10381;53.730;10.010;2023-02-28T09:50:50;102866.63;;;3.90;100.00
20444;BME280;10381;53.730;10.010;2023-02-28T09:54:51;102867.13;;;4.04;100.00
20444;BME280;10381;53.730;10.010;2023-02-28T09:58:55;102876.31;;;4.19;100.00
20444;BME280;10381;53.730;10.010;2023-02-28T10:03:06;102873.50;;;4.25;100.00
20444;BME280;10381;53.730;10.010;2023-02-28T10:07:21;102875.59;;;4.44;100.00
20444;BME280;10381;53.730;10.010;2023-02-28T10:11:23;102881.47;;;4.22;100.00
20444;BME280;10381;53.730;10.010;2023-02-28T10:15:29;102879.34;;;4.04;100.00
20444;BME280;10381;53.730;10.010;2023-02-28T10:23:47;102865.81;;;4.49;100.00
20444;BME280;10381;53.730;10.010;2023-02-28T10:27:50;102874.78;;;5.00;100.00
20444;BME280;10381;53.730;10.010;2023-02-28T10:31:53;102871.06;;;4.49;100.00
20444;BME280;10381;53.730;10.010;2023-02-28T10:35:53;102877.44;;;4.72;100.00
20444;BME280;10381;53.730;10.010;2023-02-28T10:39:54;102881.34;;;4.86;100.00
20444;BME280;10381;53.730;10.010;2023-02-28T10:44:22;102876.00;;;5.18;100.00
20444;BME280;10381;53.730;10.010;2023-02-28T10:52:40;102881.84;;;5.52;100.00
20444;BME280;10381;53.730;10.010;2023-02-28T10:56:40;102878.16;;;5.58;100.00
20444;BME280;10381;53.730;10.010;2023-02-28T11:00:42;102884.25;;;5.85;100.00
20444;BME280;10381;53.730;10.010;2023-02-28T11:04:42;102878.63;;;5.96;100.00
20444;BME280;10381;53.730;10.010;2023-02-28T11:08:54;102884.78;;;5.43;100.00
20444;BME280;10381;53.730;10.010;2023-02-28T11:12:56;102884.13;;;5.88;100.00
20444;BME280;10381;53.730;10.010;2023-02-28T11:17:14;102870.72;;;5.71;100.00
20444;BME280;10381;53.730;10.010;2023-02-28T11:21:23;102873.03;;;6.05;100.00
20444;BME280;10381;53.730;10.010;2023-02-28T11:25:29;102872.34;;;6.00;100.00
20444;BME280;10381;53.730;10.010;2023-02-28T11:29:32;102868.19;;;6.18;100.00
20444;BME280;10381;53.730;10.010;2023-02-28T11:33:52;102875.19;;;6.43;100.00
20444;BME280;10381;53.730;10.010;2023-02-28T11:37:53;102863.50;;;6.50;100.00
20444;BME280;10381;53.730;10.010;2023-02-28T11:42:39;102864.41;;;6.49;100.00
20444;BME280;10381;53.730;10.010;2023-02-28T11:46:35;102865.72;;;6.60;100.00
20444;BME280;10381;53.730;10.010;2023-02-28T11:50:54;102853.66;;;6.55;100.00
20444;BME280;10381;53.730;10.010;2023-02-28T12:08:47;102834.63;;;6.47;92.59
20444;BME280;10381;53.730;10.010;2023-02-28T12:17:33;102823.88;;;6.97;78.03
20444;BME280;10381;53.730;10.010;2023-02-28T12:22:03;102814.00;;;7.02;75.71
20444;BME280;10381;53.730;10.010;2023-02-28T12:26:07;102813.94;;;7.25;78.19
20444;BME280;10381;53.730;10.010;2023-02-28T12:30:20;102803.75;;;7.16;80.64
20444;BME280;10381;53.730;10.010;2023-02-28T12:34:27;102797.22;;;7.04;81.10
20444;BME280;10381;53.730;10.010;2023-02-28T12:38:34;102797.69;;;7.14;77.67
20444;BME280;10381;53.730;10.010;2023-02-28T12:42:41;102778.63;;;7.30;76.50
20444;BME280;10381;53.730;10.010;2023-02-28T12:46:45;102773.47;;;6.84;75.66
20444;BME280;10381;53.730;10.010;2023-02-28T12:50:48;102775.56;;;6.98;77.51
20444;BME280;10381;53.730;10.010;2023-02-28T12:55:00;102770.28;;;6.32;76.39
20444;BME280;10381;53.730;10.010;2023-02-28T13:11:57;102755.00;;;7.06;82.44
20444;BME280;10381;53.730;10.010;2023-02-28T13:16:07;102745.97;;;6.91;78.72
20444;BME280;10381;53.730;10.010;2023-02-28T13:20:23;102746.38;;;6.80;81.90
20444;BME280;10381;53.730;10.010;2023-02-28T13:24:44;102738.75;;;6.95;80.15
20444;BME280;10381;53.730;10.010;2023-02-28T13:33:17;102739.38;;;6.81;76.70
20444;BME280;10381;53.730;10.010;2023-02-28T13:45:30;102737.56;;;6.81;75.77
20444;BME280;10381;53.730;10.010;2023-02-28T13:49:37;102728.19;;;6.96;73.02
20444;BME280;10381;53.730;10.010;2023-02-28T13:53:49;102732.31;;;7.02;75.70
20444;BME280;10381;53.730;10.010;2023-02-28T13:58:17;102733.63;;;6.71;76.51
20444;BME280;10381;53.730;10.010;2023-02-28T14:06:35;102746.34;;;6.60;70.30
20444;BME280;10381;53.730;10.010;2023-02-28T14:10:42;102743.06;;;6.55;79.57
20444;BME280;10381;53.730;10.010;2023-02-28T14:18:57;102751.81;;;6.55;77.02
20444;BME280;10381;53.730;10.010;2023-02-28T14:36:25;102742.66;;;6.20;75.42
20444;BME280;10381;53.730;10.010;2023-02-28T14:40:32;102751.00;;;6.08;74.99
20444;BME280;10381;53.730;10.010;2023-02-28T14:44:35;102752.47;;;5.91;71.20
20444;BME280;10381;53.730;10.010;2023-02-28T14:48:36;102756.78;;;5.94;70.96
20444;BME280;10381;53.730;10.010;2023-02-28T14:52:38;102751.75;;;5.88;73.03
20444;BME280;10381;53.730;10.010;2023-02-28T14:56:39;102743.25;;;5.80;74.03
20444;BME280;10381;53.730;10.010;2023-02-28T15:00:48;102736.47;;;5.74;74.14
20444;BME280;10381;53.730;10.010;2023-02-28T15:04:53;102732.97;;;5.73;71.60
20444;BME280;10381;53.730;10.010;2023-02-28T15:09:15;102726.59;;;5.55;74.08
20444;BME280;10381;53.730;10.010;2023-02-28T15:13:16;102732.91;;;5.51;74.85
20444;BME280;10381;53.730;10.010;2023-02-28T15:17:22;102720.13;;;5.41;78.00
20444;BME280;10381;53.730;10.010;2023-02-28T15:21:35;102705.44;;;5.35;99.40
20444;BME280;10381;53.730;10.010;2023-02-28T15:25:39;102715.47;;;5.24;98.89
20444;BME280;10381;53.730;10.010;2023-02-28T15:29:46;102715.59;;;5.21;98.14
20444;BME280;10381;53.730;10.010;2023-02-28T15:33:54;102709.63;;;5.16;93.19
20444;BME280;10381;53.730;10.010;2023-02-28T15:42:23;102695.53;;;4.93;100.00
20444;BME280;10381;53.730;10.010;2023-02-28T15:46:23;102693.81;;;4.65;100.00
20444;BME280;10381;53.730;10.010;2023-02-28T15:50:24;102687.72;;;4.38;100.00
20444;BME280;10381;53.730;10.010;2023-02-28T15:54:29;102679.72;;;4.13;100.00
20444;BME280;10381;53.730;10.010;2023-02-28T15:58:30;102676.59;;;4.02;100.00
20444;BME280;10381;53.730;10.010;2023-02-28T16:02:37;102676.88;;;3.93;100.00
20444;BME280;10381;53.730;10.010;2023-02-28T16:07:02;102681.84;;;3.41;100.00
20444;BME280;10381;53.730;10.010;2023-02-28T16:11:03;102672.75;;;3.23;100.00
20444;BME280;10381;53.730;10.010;2023-02-28T16:15:41;102673.69;;;2.88;100.00
20444;BME280;10381;53.730;10.010;2023-02-28T16:19:42;102680.16;;;2.73;100.00
20444;BME280;10381;53.730;10.010;2023-02-28T16:23:42;102682.56;;;2.46;100.00
20444;BME280;10381;53.730;10.010;2023-02-28T16:27:45;102681.84;;;2.40;100.00
20444;BME280;10381;53.730;10.010;2023-02-28T16:31:46;102687.38;;;2.27;100.00
20444;BME280;10381;53.730;10.010;2023-02-28T16:35:47;102689.59;;;2.07;100.00
20444;BME280;10381;53.730;10.010;2023-02-28T16:39:47;102691.69;;;1.89;100.00
20444;BME280;10381;53.730;10.010;2023-02-28T16:43:49;102690.41;;;1.68;100.00
20444;BME280;10381;53.730;10.010;2023-02-28T16:47:50;102688.25;;;1.44;100.00
20444;BME280;10381;53.730;10.010;2023-02-28T16:51:51;102692.47;;;1.06;100.00
20444;BME280;10381;53.730;10.010;2023-02-28T16:55:51;102698.22;;;0.75;100.00
20444;BME280;10381;53.730;10.010;2023-02-28T16:59:52;102697.00;;;0.42;100.00
20444;BME280;10381;53.730;10.010;2023-02-28T17:03:52;102701.81;;;0.09;100.00
20444;BME280;10381;53.730;10.010;2023-02-28T17:07:53;102695.84;;;0.03;100.00
20444;BME280;10381;53.730;10.010;2023-02-28T17:11:53;102704.09;;;-0.31;100.00
20444;BME280;10381;53.730;10.010;2023-02-28T17:15:54;102710.31;;;-0.45;100.00
20444;BME280;10381;53.730;10.010;2023-02-28T17:19:54;102715.81;;;-0.72;100.00
20444;BME280;10381;53.730;10.010;2023-02-28T17:23:55;102711.75;;;-0.99;100.00
20444;BME280;10381;53.730;10.010;2023-02-28T17:27:56;102717.09;;;-1.15;100.00
20444;BME280;10381;53.730;10.010;2023-02-28T17:31:56;102714.59;;;-1.30;100.00
20444;BME280;10381;53.730;10.010;2023-02-28T17:35:56;102726.84;;;-1.44;100.00
20444;BME280;10381;53.730;10.010;2023-02-28T17:39:57;102724.38;;;-1.58;100.00
20444;BME280;10381;53.730;10.010;2023-02-28T17:43:57;102724.41;;;-1.66;100.00
20444;BME280;10381;53.730;10.010;2023-02-28T17:47:57;102721.91;;;-1.80;100.00
20444;BME280;10381;53.730;10.010;2023-02-28T17:51:58;102720.06;;;-1.65;100.00
20444;BME280;10381;53.730;10.010;2023-02-28T17:55:58;102721.88;;;-1.83;100.00
20444;BME280;10381;53.730;10.010;2023-02-28T17:59:58;102731.53;;;-2.03;100.00
20444;BME280;10381;53.730;10.010;2023-02-28T18:03:59;102733.31;;;-2.11;100.00
20444;BME280;10381;53.730;10.010;2023-02-28T18:07:59;102729.94;;;-2.30;100.00
20444;BME280;10381;53.730;10.010;2023-02-28T18:12:00;102739.38;;;-2.16;100.00
20444;BME280;10381;53.730;10.010;2023-02-28T18:16:00;102736.84;;;-2.28;100.00
20444;BME280;10381;53.730;10.010;2023-02-28T18:20:00;102736.88;;;-2.37;100.00
20444;BME280;10381;53.730;10.010;2023-02-28T18:24:01;102737.72;;;-2.41;100.00
20444;BME280;10381;53.730;10.010;2023-02-28T18:28:01;102738.63;;;-2.53;100.00
20444;BME280;10381;53.730;10.010;2023-02-28T18:32:01;102747.28;;;-2.60;100.00
20444;BME280;10381;53.730;10.010;2023-02-28T18:36:03;102741.28;;;-2.67;100.00
20444;BME280;10381;53.730;10.010;2023-02-28T18:40:03;102742.03;;;-2.28;100.00
20444;BME280;10381;53.730;10.010;2023-02-28T18:44:05;102748.13;;;-2.43;100.00
20444;BME280;10381;53.730;10.010;2023-02-28T18:48:06;102751.66;;;-2.76;100.00
20444;BME280;10381;53.730;10.010;2023-02-28T18:52:06;102743.91;;;-2.88;100.00
20444;BME280;10381;53.730;10.010;2023-02-28T18:56:10;102740.41;;;-2.66;100.00
20444;BME280;10381;53.730;10.010;2023-02-28T19:00:13;102739.56;;;-2.85;100.00
20444;BME280;10381;53.730;10.010;2023-02-28T19:04:14;102737.84;;;-3.09;100.00
20444;BME280;10381;53.730;10.010;2023-02-28T19:08:14;102732.66;;;-3.23;100.00
20444;BME280;10381;53.730;10.010;2023-02-28T19:12:14;102742.16;;;-3.26;100.00
20444;BME280;10381;53.730;10.010;2023-02-28T19:16:18;102749.06;;;-3.30;100.00
20444;BME280;10381;53.730;10.010;2023-02-28T19:20:19;102749.94;;;-3.26;100.00
20444;BME280;10381;53.730;10.010;2023-02-28T19:24:19;102749.06;;;-3.31;100.00
20444;BME280;10381;53.730;10.010;2023-02-28T19:28:19;102757.72;;;-3.38;100.00
20444;BME280;10381;53.730;10.010;2023-02-28T19:32:21;102755.94;;;-3.44;100.00
20444;BME280;10381;53.730;10.010;2023-02-28T19:36:21;102752.50;;;-3.51;100.00
20444;BME280;10381;53.730;10.010;2023-02-28T19:40:21;102749.03;;;-3.60;100.00
20444;BME280;10381;53.730;10.010;2023-02-28T19:44:21;102759.38;;;-3.65;100.00
20444;BME280;10381;53.730;10.010;2023-02-28T19:48:22;102768.88;;;-3.67;100.00
20444;BME280;10381;53.730;10.010;2023-02-28T19:52:25;102768.00;;;-3.69;100.00
20444;BME280;10381;53.730;10.010;2023-02-28T19:56:25;102768.91;;;-3.55;100.00
20444;BME280;10381;53.730;10.010;2023-02-28T20:00:25;102768.88;;;-3.61;100.00
20444;BME280;10381;53.730;10.010;2023-02-28T20:04:27;102767.16;;;-3.62;100.00
20444;BME280;10381;53.730;10.010;2023-02-28T20:08:28;102766.28;;;-3.66;100.00
20444;BME280;10381;53.730;10.010;2023-02-28T20:12:28;102772.31;;;-3.77;100.00
20444;BME280;10381;53.730;10.010;2023-02-28T20:16:28;102773.16;;;-3.84;100.00
20444;BME280;10381;53.730;10.010;2023-02-28T20:20:29;102768.81;;;-3.89;100.00
20444;BME280;10381;53.730;10.010;2023-02-28T20:24:30;102776.59;;;-3.81;100.00
20444;BME280;10381;53.730;10.010;2023-02-28T20:28:30;102768.81;;;-3.92;100.00
20444;BME280;10381;53.730;10.010;2023-02-28T20:32:31;102771.41;;;-3.81;100.00
20444;BME280;10381;53.730;10.010;2023-02-28T20:36:32;102774.84;;;-3.88;100.00
20444;BME280;10381;53.730;10.010;2023-02-28T20:40:32;102783.50;;;-3.75;100.00
20444;BME280;10381;53.730;10.010;2023-02-28T20:44:33;102774.94;;;-3.54;100.00
20444;BME280;10381;53.730;10.010;2023-02-28T20:48:34;102774.13;;;-3.33;100.00
20444;BME280;10381;53.730;10.010;2023-02-28T20:52:35;102768.91;;;-3.52;100.00
20444;BME280;10381;53.730;10.010;2023-02-28T20:56:35;102759.34;;;-3.77;100.00
20444;BME280;10381;53.730;10.010;2023-02-28T21:00:36;102761.94;;;-3.79;100.00
20444;BME280;10381;53.730;10.010;2023-02-28T21:04:36;102768.78;;;-3.90;100.00
20444;BME280;10381;53.730;10.010;2023-02-28T21:08:38;102776.63;;;-3.79;100.00
20444;BME280;10381;53.730;10.010;2023-02-28T21:12:38;102779.16;;;-3.86;100.00
20444;BME280;10381;53.730;10.010;2023-02-28T21:16:38;102773.97;;;-3.92;100.00
20444;BME280;10381;53.730;10.010;2023-02-28T21:20:39;102775.75;;;-3.78;100.00
20444;BME280;10381;53.730;10.010;2023-02-28T21:24:40;102776.53;;;-3.98;100.00
20444;BME280;10381;53.730;10.010;2023-02-28T21:28:40;102770.47;;;-4.03;100.00
20444;BME280;10381;53.730;10.010;2023-02-28T21:32:43;102767.13;;;-3.68;100.00
20444;BME280;10381;53.730;10.010;2023-02-28T21:36:43;102780.88;;;-3.91;100.00
20444;BME280;10381;53.730;10.010;2023-02-28T21:40:44;102772.22;;;-4.00;100.00
20444;BME280;10381;53.730;10.010;2023-02-28T21:44:44;102774.88;;;-3.83;100.00
20444;BME280;10381;53.730;10.010;2023-02-28T21:48:45;102777.41;;;-3.90;100.00
20444;BME280;10381;53.730;10.010;2023-02-28T21:52:47;102782.59;;;-3.90;100.00
20444;BME280;10381;53.730;10.010;2023-02-28T21:56:48;102779.13;;;-4.04;100.00
20444;BME280;10381;53.730;10.010;2023-02-28T22:00:49;102778.19;;;-4.14;100.00
20444;BME280;10381;53.730;10.010;2023-02-28T22:04:49;102790.19;;;-4.30;100.00
20444;BME280;10381;53.730;10.010;2023-02-28T22:08:55;102779.94;;;-4.11;100.00
20444;BME280;10381;53.730;10.010;2023-02-28T22:12:56;102780.91;;;-3.83;100.00
20444;BME280;10381;53.730;10.010;2023-02-28T22:17:00;102779.25;;;-3.64;100.00
20444;BME280;10381;53.730;10.010;2023-02-28T22:21:01;102786.91;;;-3.90;100.00
20444;BME280;10381;53.730;10.010;2023-02-28T22:25:02;102783.41;;;-4.11;100.00